Time;durP1;ratioP1;P1;durP2;ratioP2;P2;SDS_P1;SDS_P2;PMS_P1;PMS_P2;Temp;Humidity;BMP_temperature;BMP_pressure;BME280_temperature;BME280_humidity;BME280_pressure;Samples;Min_cycle;Max_cycle;Signal;HPM_P1;HPM_P2
2022/07/28 00:00:00;;;;;;;6.13;1.40;;;;;;;;;;4997199;28;20026;-78
2022/07/28 00:02:28;;;;;;;2.92;1.67;;;;;;;;;;4996917;28;20023;-79
2022/07/28 00:04:54;;;;;;;6.32;1.55;;;;;;;;;;4996799;28;20396;-80
2022/07/28 00:07:19;;;;;;;3.13;1.70;;;;;;;;;;4996801;28;20053;-79
2022/07/28 00:09:44;;;;;;;3.13;1.65;;;;;;;;;;4996911;28;20103;-78
2022/07/28 00:12:09;;;;;;;3.60;1.60;;;;;;;;;;4996868;28;20403;-78
2022/07/28 00:14:35;;;;;;;5.43;1.60;;;;;;;;;;4997028;28;20777;-78
2022/07/28 00:17:00;;;;;;;3.50;1.50;;;;;;;;;;4997237;28;20626;-80
2022/07/28 00:19:25;;;;;;;4.22;1.75;;;;;;;;;;4996974;28;20264;-78
2022/07/28 00:21:50;;;;;;;5.17;1.87;;;;;;;;;;4996824;28;20026;-80
2022/07/28 00:24:16;;;;;;;6.00;1.70;;;;;;;;;;4997254;28;20284;-80
2022/07/28 00:26:41;;;;;;;6.03;1.35;;;;;;;;;;4996787;28;20354;-79
2022/07/28 00:29:07;;;;;;;4.27;1.90;;;;;;;;;;4997251;28;20026;-80
2022/07/28 00:31:32;;;;;;;4.53;1.58;;;;;;;;;;4979691;28;20259;-79
2022/07/28 00:33:57;;;;;;;5.50;1.80;;;;;;;;;;4996521;28;20031;-81
2022/07/28 00:36:23;;;;;;;2.60;1.67;;;;;;;;;;4997305;28;20019;-78
2022/07/28 00:38:48;;;;;;;4.95;2.00;;;;;;;;;;4979862;28;20022;-80
2022/07/28 00:41:13;;;;;;;5.93;1.60;;;;;;;;;;4979471;28;20030;-81
2022/07/28 00:43:43;;;;;;;7.45;1.40;;;;;;;;;;4979467;28;20344;-80
2022/07/28 00:46:10;;;;;;;4.28;1.90;;;;;;;;;;4997160;28;20049;-79
2022/07/28 00:48:39;;;;;;;8.40;2.00;;;;;;;;;;4996637;28;20027;-80
2022/07/28 00:51:06;;;;;;;5.78;1.90;;;;;;;;;;4996728;28;20026;-80
2022/07/28 00:53:31;;;;;;;4.75;2.03;;;;;;;;;;4996666;28;20093;-77
2022/07/28 00:55:57;;;;;;;2.72;1.48;;;;;;;;;;4996618;28;20034;-79
2022/07/28 00:58:22;;;;;;;3.78;1.55;;;;;;;;;;4997322;28;20054;-79
2022/07/28 01:00:47;;;;;;;7.17;1.80;;;;;;;;;;4996627;28;20019;-80
2022/07/28 01:03:13;;;;;;;5.63;1.93;;;;;;;;;;4995473;28;20287;-80
2022/07/28 01:05:55;;;;;;;5.68;2.10;;;;;;;;;;4979328;28;20335;-81
2022/07/28 01:08:46;;;;;;;6.32;2.17;;;;;;;;;;4980672;28;20026;-82
2022/07/28 01:11:28;;;;;;;3.42;2.05;;;;;;;;;;4996477;28;20038;-80
2022/07/28 01:14:09;;;;;;;5.55;2.30;;;;;;;;;;4996289;28;20037;-79
2022/07/28 01:17:00;;;;;;;5.93;2.40;;;;;;;;;;4996170;28;20109;-80
2022/07/28 01:19:46;;;;;;;5.82;2.17;;;;;;;;;;4996680;28;20109;-80
2022/07/28 01:22:19;;;;;;;4.38;2.17;;;;;;;;;;4996880;28;20026;-80
2022/07/28 01:25:07;;;;;;;5.72;2.15;;;;;;;;;;4997039;28;20026;-80
2022/07/28 01:27:47;;;;;;;6.10;2.42;;;;;;;;;;4996783;28;20038;-79
2022/07/28 01:30:29;;;;;;;4.25;2.30;;;;;;;;;;4996264;28;20034;-81
2022/07/28 01:33:01;;;;;;;8.07;2.47;;;;;;;;;;4996649;28;20506;-79
2022/07/28 01:35:31;;;;;;;4.78;2.25;;;;;;;;;;4996817;28;20037;-79
2022/07/28 01:37:59;;;;;;;5.15;2.13;;;;;;;;;;4996482;28;20030;-80
2022/07/28 01:40:29;;;;;;;5.05;2.10;;;;;;;;;;4996825;28;20034;-79
2022/07/28 01:42:59;;;;;;;7.32;2.10;;;;;;;;;;4996177;28;20030;-80
2022/07/28 01:45:25;;;;;;;3.17;2.00;;;;;;;;;;4996682;28;20101;-80
2022/07/28 01:47:53;;;;;;;4.18;2.03;;;;;;;;;;4996051;28;20480;-80
2022/07/28 01:50:21;;;;;;;4.53;2.08;;;;;;;;;;4996033;28;20031;-79
2022/07/28 01:52:48;;;;;;;3.40;1.85;;;;;;;;;;4996020;28;20022;-79
2022/07/28 01:55:17;;;;;;;5.13;2.38;;;;;;;;;;4996268;28;20085;-79
2022/07/28 01:57:43;;;;;;;4.57;2.00;;;;;;;;;;4996571;28;20026;-81
2022/07/28 02:00:11;;;;;;;5.95;2.00;;;;;;;;;;4996220;28;20030;-79
2022/07/28 02:02:38;;;;;;;4.15;2.10;;;;;;;;;;4996164;28;20053;-80
2022/07/28 02:05:05;;;;;;;7.90;2.33;;;;;;;;;;4978672;28;20134;-80
2022/07/28 02:07:32;;;;;;;4.40;1.95;;;;;;;;;;4996235;28;20022;-80
2022/07/28 02:09:59;;;;;;;4.43;2.28;;;;;;;;;;4996058;28;20053;-79
2022/07/28 02:12:26;;;;;;;4.93;2.15;;;;;;;;;;4995850;28;20030;-79
2022/07/28 02:14:53;;;;;;;6.05;1.92;;;;;;;;;;4999068;28;20030;-79
2022/07/28 02:17:24;;;;;;;4.75;2.20;;;;;;;;;;4999898;28;20029;-78
2022/07/28 02:19:51;;;;;;;6.38;2.10;;;;;;;;;;4999785;28;20050;-78
2022/07/28 02:22:16;;;;;;;9.73;2.17;;;;;;;;;;4999645;28;20038;-79
2022/07/28 02:24:43;;;;;;;3.80;2.10;;;;;;;;;;4982070;28;20025;-80
2022/07/28 02:27:26;;;;;;;5.43;2.08;;;;;;;;;;4999413;28;20496;-79
2022/07/28 02:30:11;;;;;;;9.40;2.45;;;;;;;;;;4999234;28;20447;-81
2022/07/28 02:32:41;;;;;;;4.60;2.28;;;;;;;;;;4999810;28;20027;-78
2022/07/28 02:35:27;;;;;;;6.22;2.20;;;;;;;;;;4999150;28;20030;-80
2022/07/28 02:37:57;;;;;;;10.30;2.40;;;;;;;;;;5003518;28;20432;-86
2022/07/28 02:40:28;;;;;;;3.15;2.10;;;;;;;;;;5004566;28;20026;-78
2022/07/28 02:42:55;;;;;;;5.75;2.05;;;;;;;;;;4983406;28;20053;-80
2022/07/28 02:45:25;;;;;;;5.38;2.35;;;;;;;;;;4983746;28;20031;-80
2022/07/28 02:47:54;;;;;;;4.85;2.00;;;;;;;;;;4984600;28;20113;-81
2022/07/28 02:50:23;;;;;;;4.40;2.00;;;;;;;;;;5001695;28;20038;-79
2022/07/28 02:52:50;;;;;;;4.78;2.17;;;;;;;;;;5001459;28;20057;-80
2022/07/28 02:55:16;;;;;;;4.90;2.28;;;;;;;;;;5001389;28;20027;-81
2022/07/28 02:57:44;;;;;;;2.78;1.80;;;;;;;;;;5001308;28;20483;-81
2022/07/28 03:00:11;;;;;;;4.50;2.05;;;;;;;;;;5000902;28;20499;-80
2022/07/28 03:02:38;;;;;;;5.82;2.20;;;;;;;;;;5000737;28;20365;-81
2022/07/28 03:05:06;;;;;;;4.22;2.15;;;;;;;;;;5001010;28;20022;-81
2022/07/28 03:07:32;;;;;;;6.60;2.17;;;;;;;;;;5000699;28;20040;-81
2022/07/28 03:09:59;;;;;;;3.45;2.00;;;;;;;;;;5002221;28;20050;-78
2022/07/28 03:55:49;;;;;;;;;;;;;;;;;;;;;
2022/07/28 03:58:16;;;;;;;7.88;2.33;;;;;;;;;;4885811;29;20137;-81
2022/07/28 04:00:41;;;;;;;5.10;2.40;;;;;;;;;;4866047;29;20040;-80
2022/07/28 04:03:06;;;;;;;10.82;2.60;;;;;;;;;;4916385;28;20043;-81
2022/07/28 04:05:32;;;;;;;3.57;2.30;;;;;;;;;;5034828;28;20058;-80
2022/07/28 04:07:57;;;;;;;5.23;2.20;;;;;;;;;;5040046;28;20259;-83
2022/07/28 04:10:22;;;;;;;6.17;2.47;;;;;;;;;;5040555;28;20340;-82
2022/07/28 04:12:54;;;;;;;8.00;2.40;;;;;;;;;;5024434;28;20262;-82
2022/07/28 04:15:19;;;;;;;6.63;2.40;;;;;;;;;;5042624;28;20093;-81
2022/07/28 04:17:47;;;;;;;4.18;2.30;;;;;;;;;;5041439;28;20053;-79
2022/07/28 04:20:13;;;;;;;5.68;2.55;;;;;;;;;;5022872;28;20558;-80
2022/07/28 04:22:38;;;;;;;3.72;2.33;;;;;;;;;;5040803;28;20044;-82
2022/07/28 04:25:04;;;;;;;7.63;2.50;;;;;;;;;;5041076;28;20441;-80
2022/07/28 04:27:29;;;;;;;4.38;2.53;;;;;;;;;;5040041;28;20287;-81
2022/07/28 04:29:54;;;;;;;4.93;2.80;;;;;;;;;;5041285;28;20396;-80
2022/07/28 04:32:20;;;;;;;8.00;2.90;;;;;;;;;;5041708;28;20032;-81
2022/07/28 04:34:45;;;;;;;5.87;2.40;;;;;;;;;;5042305;28;20254;-82
2022/07/28 04:37:11;;;;;;;7.23;2.60;;;;;;;;;;5023705;28;20357;-80
2022/07/28 04:39:36;;;;;;;10.63;3.15;;;;;;;;;;5041441;28;20298;-82
2022/07/28 04:42:02;;;;;;;6.47;2.72;;;;;;;;;;5040799;28;20495;-81
2022/07/28 04:44:27;;;;;;;4.53;2.33;;;;;;;;;;5040483;28;20028;-80
2022/07/28 04:46:52;;;;;;;6.97;2.70;;;;;;;;;;5039890;28;20071;-80
2022/07/28 04:49:17;;;;;;;3.28;2.20;;;;;;;;;;5040376;28;20030;-82
2022/07/28 04:51:48;;;;;;;5.80;2.60;;;;;;;;;;5041420;28;20390;-81
2022/07/28 04:54:13;;;;;;;6.05;2.92;;;;;;;;;;5041948;28;20061;-82
2022/07/28 04:56:38;;;;;;;4.68;2.33;;;;;;;;;;5023758;28;20485;-81
2022/07/28 04:59:04;;;;;;;8.33;2.90;;;;;;;;;;5022565;28;20033;-80
2022/07/28 05:01:29;;;;;;;7.82;3.08;;;;;;;;;;5039893;28;20281;-81
2022/07/28 05:03:54;;;;;;;7.03;2.63;;;;;;;;;;5038295;28;20057;-80
2022/07/28 05:06:21;;;;;;;7.65;3.08;;;;;;;;;;5037176;28;20291;-80
2022/07/28 05:08:46;;;;;;;7.47;2.97;;;;;;;;;;5038107;28;20506;-81
2022/07/28 05:11:11;;;;;;;6.37;2.67;;;;;;;;;;5037840;28;20740;-80
2022/07/28 05:13:36;;;;;;;5.45;2.63;;;;;;;;;;5037605;28;20258;-81
2022/07/28 05:16:02;;;;;;;4.77;2.50;;;;;;;;;;5037525;28;20021;-80
2022/07/28 05:18:28;;;;;;;7.25;2.38;;;;;;;;;;5019045;28;20270;-79
2022/07/28 05:20:53;;;;;;;4.65;2.65;;;;;;;;;;5036939;28;20017;-80
2022/07/28 05:23:18;;;;;;;6.53;2.90;;;;;;;;;;5039540;28;20403;-80
2022/07/28 05:25:43;;;;;;;5.88;2.83;;;;;;;;;;5041244;28;20676;-81
2022/07/28 05:28:09;;;;;;;7.18;2.67;;;;;;;;;;5040961;28;20026;-81
2022/07/28 05:30:35;;;;;;;5.90;2.67;;;;;;;;;;5040078;28;20506;-81
2022/07/28 05:33:01;;;;;;;8.48;3.00;;;;;;;;;;5040556;28;20029;-79
2022/07/28 05:35:26;;;;;;;7.55;3.38;;;;;;;;;;5040227;28;20021;-81
2022/07/28 05:37:51;;;;;;;10.35;2.92;;;;;;;;;;5040748;28;20487;-81
2022/07/28 05:40:17;;;;;;;5.25;3.42;;;;;;;;;;5040967;28;20025;-82
2022/07/28 05:42:43;;;;;;;10.68;4.30;;;;;;;;;;5042170;28;20044;-80
2022/07/28 05:45:09;;;;;;;6.03;3.63;;;;;;;;;;5042072;28;20091;-81
2022/07/28 05:47:40;;;;;;;10.90;4.00;;;;;;;;;;5023941;28;20442;-82
2022/07/28 05:50:06;;;;;;;8.40;4.05;;;;;;;;;;5046734;28;20513;-81
2022/07/28 05:52:31;;;;;;;12.77;4.22;;;;;;;;;;5046471;28;20097;-82
2022/07/28 05:54:56;;;;;;;9.77;4.45;;;;;;;;;;5029122;28;20063;-81
2022/07/28 05:57:22;;;;;;;13.45;5.55;;;;;;;;;;5048303;28;20049;-81
2022/07/28 05:59:47;;;;;;;13.95;5.60;;;;;;;;;;5046409;28;20033;-81
2022/07/28 06:02:12;;;;;;;16.20;6.57;;;;;;;;;;5028241;28;20438;-81
2022/07/28 06:04:38;;;;;;;14.15;6.82;;;;;;;;;;5047615;28;20679;-80
2022/07/28 06:07:03;;;;;;;12.73;6.60;;;;;;;;;;5047811;28;20021;-81
2022/07/28 06:09:29;;;;;;;12.60;6.30;;;;;;;;;;5048648;28;20270;-79
2022/07/28 06:11:55;;;;;;;21.55;7.05;;;;;;;;;;5048153;28;20267;-81
2022/07/28 06:14:20;;;;;;;13.52;6.15;;;;;;;;;;5029660;28;20053;-81
2022/07/28 06:16:49;;;;;;;16.75;7.35;;;;;;;;;;5047702;28;20063;-81
2022/07/28 06:19:18;;;;;;;14.32;6.72;;;;;;;;;;5047621;28;20082;-82
2022/07/28 06:21:43;;;;;;;17.33;8.02;;;;;;;;;;5046910;28;20030;-82
2022/07/28 06:24:08;;;;;;;17.48;7.70;;;;;;;;;;5048368;28;20022;-82
2022/07/28 06:26:36;;;;;;;12.68;7.30;;;;;;;;;;5048784;28;20100;-83
2022/07/28 06:29:02;;;;;;;15.35;7.60;;;;;;;;;;5049030;28;20427;-82
2022/07/28 06:31:27;;;;;;;16.65;7.80;;;;;;;;;;5048670;28;20063;-82
2022/07/28 06:33:52;;;;;;;13.23;8.30;;;;;;;;;;5050658;28;20017;-82
2022/07/28 06:36:18;;;;;;;17.73;8.73;;;;;;;;;;5049424;28;20327;-82
2022/07/28 06:38:43;;;;;;;19.27;8.25;;;;;;;;;;5047410;28;20246;-81
2022/07/28 06:41:08;;;;;;;17.83;7.60;;;;;;;;;;5048157;28;20027;-82
2022/07/28 06:43:34;;;;;;;15.55;8.10;;;;;;;;;;5046691;28;20281;-81
2022/07/28 06:45:59;;;;;;;14.90;7.37;;;;;;;;;;5047787;28;20021;-82
2022/07/28 06:48:24;;;;;;;19.55;8.35;;;;;;;;;;5047855;28;20782;-81
2022/07/28 06:50:49;;;;;;;13.93;7.37;;;;;;;;;;5049488;28;20026;-82
2022/07/28 06:53:15;;;;;;;15.40;8.18;;;;;;;;;;5031415;28;20269;-82
2022/07/28 06:55:40;;;;;;;19.65;9.30;;;;;;;;;;5031561;28;20081;-81
2022/07/28 06:58:06;;;;;;;21.00;9.18;;;;;;;;;;5050259;28;20410;-82
2022/07/28 07:00:31;;;;;;;21.17;10.77;;;;;;;;;;5050793;28;20037;-81
2022/07/28 07:02:56;;;;;;;25.27;10.88;;;;;;;;;;5037150;28;20045;-81
2022/07/28 07:05:21;;;;;;;23.70;9.70;;;;;;;;;;5054956;28;20052;-79
2022/07/28 07:07:47;;;;;;;17.98;9.73;;;;;;;;;;5036085;28;20028;-81
2022/07/28 07:10:12;;;;;;;18.43;10.20;;;;;;;;;;5033984;28;20029;-79
2022/07/28 07:12:37;;;;;;;23.17;10.98;;;;;;;;;;5051151;28;20770;-79
2022/07/28 07:15:04;;;;;;;19.42;10.60;;;;;;;;;;5052263;28;20085;-79
2022/07/28 07:17:29;;;;;;;19.52;10.82;;;;;;;;;;5053953;28;20087;-79
2022/07/28 07:19:54;;;;;;;19.45;9.07;;;;;;;;;;5052162;28;20021;-81
2022/07/28 07:22:20;;;;;;;23.70;9.82;;;;;;;;;;5053358;28;20403;-80
2022/07/28 07:24:45;;;;;;;18.73;9.50;;;;;;;;;;5051843;28;20034;-80
2022/07/28 07:27:10;;;;;;;18.40;10.83;;;;;;;;;;5053531;28;20270;-78
2022/07/28 07:29:35;;;;;;;18.40;9.97;;;;;;;;;;5050387;28;20263;-78
2022/07/28 07:32:01;;;;;;;19.33;9.70;;;;;;;;;;5040688;28;20261;-80
2022/07/28 07:34:26;;;;;;;17.85;10.13;;;;;;;;;;5038817;28;20044;-80
2022/07/28 07:36:51;;;;;;;22.40;10.27;;;;;;;;;;5037706;28;20368;-79
2022/07/28 07:39:16;;;;;;;23.00;9.67;;;;;;;;;;5019820;28;20312;-79
2022/07/28 07:41:42;;;;;;;22.17;10.30;;;;;;;;;;5037670;28;20294;-79
2022/07/28 07:44:08;;;;;;;18.83;9.15;;;;;;;;;;5037828;28;20435;-79
2022/07/28 07:46:35;;;;;;;16.52;8.85;;;;;;;;;;5037818;28;20371;-80
2022/07/28 07:49:00;;;;;;;18.30;9.25;;;;;;;;;;5037232;28;20028;-79
2022/07/28 07:51:25;;;;;;;18.90;9.98;;;;;;;;;;5037544;28;20022;-78
2022/07/28 07:53:50;;;;;;;20.33;9.90;;;;;;;;;;5038711;28;20105;-78
2022/07/28 07:56:17;;;;;;;17.07;8.17;;;;;;;;;;5038101;28;20597;-77
2022/07/28 07:58:42;;;;;;;18.75;8.13;;;;;;;;;;5019637;28;20263;-78
2022/07/28 08:01:07;;;;;;;16.60;8.25;;;;;;;;;;5036828;28;20087;-79
2022/07/28 08:03:32;;;;;;;16.83;8.30;;;;;;;;;;5036989;28;20052;-79
2022/07/28 08:05:58;;;;;;;15.50;8.37;;;;;;;;;;5036754;28;20427;-80
2022/07/28 08:08:23;;;;;;;14.87;7.53;;;;;;;;;;5036585;28;20255;-79
2022/07/28 08:10:49;;;;;;;14.13;6.65;;;;;;;;;;5036001;28;20258;-80
2022/07/28 08:13:15;;;;;;;15.85;7.38;;;;;;;;;;5036981;28;20037;-79
2022/07/28 08:15:41;;;;;;;12.68;5.30;;;;;;;;;;5036826;28;20021;-79
2022/07/28 08:18:06;;;;;;;13.70;5.80;;;;;;;;;;5037076;28;20028;-78
2022/07/28 08:20:31;;;;;;;10.10;4.93;;;;;;;;;;5036490;28;20341;-80
2022/07/28 08:22:57;;;;;;;12.10;4.70;;;;;;;;;;5037284;28;20806;-79
2022/07/28 08:25:23;;;;;;;10.57;5.15;;;;;;;;;;5039485;28;20057;-82
2022/07/28 08:27:49;;;;;;;10.55;3.88;;;;;;;;;;5039679;28;20064;-82
2022/07/28 08:30:18;;;;;;;6.13;2.70;;;;;;;;;;5037761;28;20056;-84
2022/07/28 08:32:43;;;;;;;4.15;2.17;;;;;;;;;;5037964;28;20538;-83
2022/07/28 08:35:08;;;;;;;5.90;3.03;;;;;;;;;;5018973;28;20091;-80
2022/07/28 08:37:34;;;;;;;6.57;3.10;;;;;;;;;;5038037;28;20031;-79
2022/07/28 08:39:59;;;;;;;4.63;2.80;;;;;;;;;;5037010;28;20285;-80
2022/07/28 08:42:33;;;;;;;6.63;3.03;;;;;;;;;;5055299;22;20046;-77
2022/07/28 08:45:02;;;;;;;;;;;;;;;;;;5038562;28;20026;-77
2022/07/28 08:47:31;;;;;;;8.52;3.25;;;;;;;;;;5040104;28;20330;-77
2022/07/28 08:49:58;;;;;;;6.10;2.40;;;;;;;;;;5042733;28;20100;-79
2022/07/28 08:52:27;;;;;;;7.18;2.42;;;;;;;;;;5042746;28;20021;-79
2022/07/28 08:54:54;;;;;;;4.68;1.88;;;;;;;;;;5042059;28;20025;-79
2022/07/28 08:57:42;;;;;;;5.95;2.35;;;;;;;;;;5041974;28;20033;-78
2022/07/28 09:00:08;;;;;;;7.70;2.10;;;;;;;;;;5040271;28;20033;-79
2022/07/28 09:02:41;;;;;;;6.25;2.22;;;;;;;;;;5023990;28;20079;-78
2022/07/28 09:05:07;;;;;;;5.60;2.40;;;;;;;;;;5024864;28;20120;-78
2022/07/28 09:07:36;;;;;;;6.40;2.28;;;;;;;;;;5007844;28;20112;-78
2022/07/28 09:10:04;;;;;;;3.78;1.50;;;;;;;;;;5040782;28;20025;-77
2022/07/28 09:12:32;;;;;;;4.28;1.52;;;;;;;;;;5041331;28;20021;-78
2022/07/28 09:14:57;;;;;;;6.90;1.08;;;;;;;;;;5023450;28;20018;-76
2022/07/28 09:17:23;;;;;;;7.18;1.13;;;;;;;;;;5041296;28;20022;-77
2022/07/28 09:19:48;;;;;;;2.67;1.05;;;;;;;;;;5040583;28;20036;-78
2022/07/28 09:22:13;;;;;;;3.87;0.90;;;;;;;;;;5040909;28;20022;-78
2022/07/28 09:24:43;;;;;;;3.63;1.00;;;;;;;;;;5022579;28;20278;-79
2022/07/28 09:27:10;;;;;;;4.47;1.00;;;;;;;;;;5021286;28;20037;-77
2022/07/28 09:29:36;;;;;;;2.55;0.80;;;;;;;;;;5021044;28;20540;-78
2022/07/28 09:32:03;;;;;;;2.40;1.30;;;;;;;;;;5022572;28;20036;-77
2022/07/28 09:34:41;;;;;;;3.13;1.38;;;;;;;;;;5039680;28;20163;-78
2022/07/28 09:37:24;;;;;;;5.00;1.23;;;;;;;;;;5039480;28;20025;-79
2022/07/28 09:39:52;;;;;;;1.77;0.90;;;;;;;;;;5039532;28;20036;-77
2022/07/28 09:42:18;;;;;;;3.72;1.13;;;;;;;;;;5021700;28;20059;-79
2022/07/28 09:44:44;;;;;;;2.47;1.00;;;;;;;;;;5039638;28;20471;-77
2022/07/28 09:47:26;;;;;;;3.58;1.23;;;;;;;;;;5038953;28;20087;-76
2022/07/28 09:49:52;;;;;;;4.72;1.05;;;;;;;;;;5039236;28;20073;-77
2022/07/28 09:52:32;;;;;;;3.33;0.85;;;;;;;;;;5038190;28;20394;-78
2022/07/28 09:55:10;;;;;;;6.03;1.00;;;;;;;;;;5038589;28;20025;-78
2022/07/28 09:57:38;;;;;;;2.45;1.00;;;;;;;;;;5039126;28;20068;-77
2022/07/28 10:00:08;;;;;;;3.85;1.00;;;;;;;;;;5038947;28;20076;-78
2022/07/28 10:02:34;;;;;;;2.60;1.02;;;;;;;;;;5038874;28;20021;-77
2022/07/28 10:04:59;;;;;;;2.25;0.90;;;;;;;;;;5039586;28;20025;-76
2022/07/28 10:07:29;;;;;;;2.10;0.80;;;;;;;;;;5040689;28;20106;-79
2022/07/28 10:10:08;;;;;;;5.15;1.08;;;;;;;;;;5039843;28;20021;-78
2022/07/28 10:12:35;;;;;;;5.53;1.20;;;;;;;;;;5020914;28;20049;-77
2022/07/28 10:18:03;;;;;;;2.38;1.00;;;;;;;;;;5038480;28;20028;-77
2022/07/28 10:20:31;;;;;;;2.15;0.88;;;;;;;;;;5037621;28;20151;-77
2022/07/28 10:23:01;;;;;;;3.17;0.90;;;;;;;;;;5038846;28;20421;-76
2022/07/28 10:25:29;;;;;;;3.42;0.90;;;;;;;;;;5036924;28;20120;-77
2022/07/28 10:27:58;;;;;;;3.22;1.00;;;;;;;;;;5038042;28;20095;-77
2022/07/28 10:30:23;;;;;;;2.67;0.90;;;;;;;;;;5036982;28;20089;-77
2022/07/28 10:32:51;;;;;;;2.30;0.98;;;;;;;;;;5037144;28;20055;-77
2022/07/28 10:35:16;;;;;;;5.55;0.90;;;;;;;;;;5039625;28;20017;-77
2022/07/28 10:38:08;;;;;;;3.65;0.80;;;;;;;;;;5042366;28;20052;-78
2022/07/28 10:40:41;;;;;;;2.80;1.05;;;;;;;;;;5041610;28;20505;-78
2022/07/28 10:43:07;;;;;;;3.45;1.00;;;;;;;;;;5041391;28;20382;-78
2022/07/28 10:45:34;;;;;;;2.85;0.80;;;;;;;;;;5041921;28;20033;-79
2022/07/28 10:48:00;;;;;;;2.20;1.00;;;;;;;;;;5041251;28;20052;-78
2022/07/28 10:50:26;;;;;;;7.85;1.02;;;;;;;;;;5042099;28;20501;-78
2022/07/28 10:52:52;;;;;;;5.07;0.88;;;;;;;;;;5042583;28;20030;-78
2022/07/28 10:55:27;;;;;;;3.75;1.17;;;;;;;;;;5042220;28;20021;-77
2022/07/28 10:58:12;;;;;;;1.85;0.90;;;;;;;;;;5041657;28;20033;-77
2022/07/28 11:00:46;;;;;;;2.05;0.90;;;;;;;;;;5041773;28;20036;-77
2022/07/28 11:03:35;;;;;;;1.45;0.80;;;;;;;;;;5040005;28;20025;-78
2022/07/28 11:06:27;;;;;;;0.93;0.80;;;;;;;;;;5041584;28;20061;-78
2022/07/28 11:09:15;;;;;;;5.93;1.08;;;;;;;;;;5041122;28;20025;-78
2022/07/28 11:11:51;;;;;;;3.00;1.00;;;;;;;;;;5040659;28;20025;-78
2022/07/28 11:14:28;;;;;;;6.00;1.00;;;;;;;;;;5041496;28;20060;-77
2022/07/28 11:17:17;;;;;;;3.08;0.90;;;;;;;;;;5041512;28;20032;-78
2022/07/28 11:19:42;;;;;;;4.22;1.05;;;;;;;;;;5041151;28;20028;-77
2022/07/28 11:22:14;;;;;;;3.67;0.90;;;;;;;;;;5023898;28;20033;-77
2022/07/28 11:24:57;;;;;;;3.85;1.10;;;;;;;;;;5041549;28;20525;-76
2022/07/28 11:27:41;;;;;;;2.45;1.00;;;;;;;;;;5040880;28;20033;-77
2022/07/28 11:30:08;;;;;;;3.80;1.15;;;;;;;;;;5040744;28;20083;-77
2022/07/28 11:32:49;;;;;;;4.50;1.10;;;;;;;;;;5024717;28;20453;-78
2022/07/28 11:35:18;;;;;;;4.53;1.20;;;;;;;;;;5023853;28;20029;-77
2022/07/28 11:38:06;;;;;;;6.90;0.93;;;;;;;;;;5041749;28;20502;-77
2022/07/28 11:40:46;;;;;;;4.68;0.80;;;;;;;;;;5041496;28;20438;-78
2022/07/28 11:43:20;;;;;;;12.68;1.20;;;;;;;;;;5042785;28;20025;-78
2022/07/28 11:45:47;;;;;;;1.42;0.80;;;;;;;;;;5040035;28;20036;-78
2022/07/28 11:48:17;;;;;;;6.72;1.25;;;;;;;;;;5041125;28;20026;-78
2022/07/28 11:51:02;;;;;;;3.42;1.10;;;;;;;;;;5040170;28;20021;-78
2022/07/28 11:53:44;;;;;;;3.00;1.15;;;;;;;;;;5040642;28;20025;-78
2022/07/28 11:56:12;;;;;;;9.18;1.38;;;;;;;;;;5040419;28;20057;-78
2022/07/28 11:58:38;;;;;;;2.90;1.10;;;;;;;;;;5040578;28;20029;-76
2022/07/28 12:01:13;;;;;;;5.32;1.00;;;;;;;;;;5039428;28;20441;-77
2022/07/28 12:03:39;;;;;;;2.55;1.20;;;;;;;;;;5023308;28;20022;-76
2022/07/28 12:06:05;;;;;;;2.58;1.02;;;;;;;;;;5022952;28;20117;-78
2022/07/28 12:08:55;;;;;;;3.88;1.10;;;;;;;;;;5041847;28;20060;-78
2022/07/28 12:11:23;;;;;;;4.60;1.05;;;;;;;;;;5040807;28;20497;-78
2022/07/28 12:14:03;;;;;;;2.15;0.85;;;;;;;;;;5040542;28;20104;-78
2022/07/28 12:16:31;;;;;;;3.15;1.20;;;;;;;;;;5040797;28;20033;-77
2022/07/28 12:18:56;;;;;;;2.25;0.75;;;;;;;;;;5040798;28;20033;-77
2022/07/28 12:21:41;;;;;;;4.15;1.25;;;;;;;;;;5039966;28;20382;-78
2022/07/28 12:24:10;;;;;;;2.10;0.93;;;;;;;;;;5039474;28;20043;-78
2022/07/28 12:26:38;;;;;;;2.85;1.05;;;;;;;;;;5022092;28;20025;-78
2022/07/28 12:29:03;;;;;;;3.88;1.10;;;;;;;;;;5041158;28;20127;-78
2022/07/28 12:31:31;;;;;;;10.73;1.35;;;;;;;;;;5040252;28;20033;-77
2022/07/28 12:34:00;;;;;;;0.95;0.80;;;;;;;;;;5040747;28;20021;-77
2022/07/28 12:36:27;;;;;;;3.70;1.13;;;;;;;;;;5040781;28;20514;-78
2022/07/28 12:38:52;;;;;;;4.28;1.10;;;;;;;;;;5040114;28;20375;-76
2022/07/28 12:41:18;;;;;;;3.28;1.10;;;;;;;;;;5040265;28;20045;-77
2022/07/28 12:43:51;;;;;;;2.95;0.90;;;;;;;;;;5040099;28;20025;-77
2022/07/28 12:46:25;;;;;;;5.70;1.00;;;;;;;;;;5039182;28;20386;-78
2022/07/28 12:48:50;;;;;;;;;;;;;;;;;;5040259;28;20029;-77
2022/07/28 12:51:37;;;;;;;5.88;1.30;;;;;;;;;;5040245;28;19922;-77
2022/07/28 12:54:04;;;;;;;3.35;0.90;;;;;;;;;;5040936;28;20029;-78
2022/07/28 12:56:30;;;;;;;4.05;0.90;;;;;;;;;;5041176;28;20388;-78
2022/07/28 12:59:06;;;;;;;2.25;0.80;;;;;;;;;;5038957;28;20033;-77
2022/07/28 13:01:48;;;;;;;3.42;1.10;;;;;;;;;;5024489;28;20037;-77
2022/07/28 13:04:15;;;;;;;3.40;1.10;;;;;;;;;;5040266;28;20018;-77
2022/07/28 13:06:41;;;;;;;1.42;0.98;;;;;;;;;;5040959;28;20081;-78
2022/07/28 13:09:06;;;;;;;2.42;1.10;;;;;;;;;;5040623;28;20056;-78
2022/07/28 13:11:32;;;;;;;5.20;1.40;;;;;;;;;;5042717;28;20029;-77
2022/07/28 13:13:57;;;;;;;2.67;1.13;;;;;;;;;;5041111;28;20029;-76
2022/07/28 13:16:27;;;;;;;2.75;1.20;;;;;;;;;;5040023;28;20400;-77
2022/07/28 13:18:58;;;;;;;4.72;1.23;;;;;;;;;;5039986;28;20434;-77
2022/07/28 13:21:42;;;;;;;2.22;0.90;;;;;;;;;;5039462;28;20037;-76
2022/07/28 13:24:09;;;;;;;3.20;0.90;;;;;;;;;;5039371;28;20030;-77
2022/07/28 13:26:36;;;;;;;3.55;1.10;;;;;;;;;;5039192;28;20087;-78
2022/07/28 13:29:02;;;;;;;3.85;1.10;;;;;;;;;;5039524;28;20033;-77
2022/07/28 13:31:28;;;;;;;2.92;1.05;;;;;;;;;;5021938;28;20493;-77
2022/07/28 13:33:53;;;;;;;3.35;1.40;;;;;;;;;;5039598;28;20025;-77
2022/07/28 13:36:18;;;;;;;5.27;1.10;;;;;;;;;;5039297;28;20022;-77
2022/07/28 13:38:43;;;;;;;5.93;1.53;;;;;;;;;;5039102;28;20280;-77
2022/07/28 13:41:09;;;;;;;3.70;1.33;;;;;;;;;;5039382;28;20353;-77
2022/07/28 13:43:34;;;;;;;4.35;1.40;;;;;;;;;;5041313;28;20329;-77
2022/07/28 13:45:59;;;;;;;3.67;1.27;;;;;;;;;;5039767;28;20085;-78
2022/07/28 13:48:24;;;;;;;3.00;1.30;;;;;;;;;;5039069;28;20491;-78
2022/07/28 13:50:50;;;;;;;5.47;1.33;;;;;;;;;;5038770;28;20255;-77
2022/07/28 13:53:15;;;;;;;2.78;1.00;;;;;;;;;;5039310;28;20308;-77
2022/07/28 13:55:40;;;;;;;6.77;1.30;;;;;;;;;;5040153;28;20057;-77
2022/07/28 13:58:05;;;;;;;2.57;1.20;;;;;;;;;;5040387;28;20267;-76
2022/07/28 14:00:31;;;;;;;5.88;1.30;;;;;;;;;;5039167;28;20246;-76
2022/07/28 14:02:56;;;;;;;4.82;1.20;;;;;;;;;;5020859;28;20031;-77
2022/07/28 14:05:21;;;;;;;4.23;1.30;;;;;;;;;;5039879;28;20040;-77
2022/07/28 14:07:48;;;;;;;7.07;1.33;;;;;;;;;;5041023;28;20263;-77
2022/07/28 14:10:13;;;;;;;4.32;1.48;;;;;;;;;;5042942;28;20026;-77
2022/07/28 14:12:38;;;;;;;4.18;1.77;;;;;;;;;;5044470;28;20116;-77
2022/07/28 14:15:05;;;;;;;2.50;1.23;;;;;;;;;;5026128;28;20017;-78
2022/07/28 14:17:31;;;;;;;2.72;1.45;;;;;;;;;;5025590;28;20022;-77
2022/07/28 14:19:56;;;;;;;3.83;1.50;;;;;;;;;;5042918;28;20075;-77
2022/07/28 14:22:21;;;;;;;3.77;1.33;;;;;;;;;;5042685;28;20453;-77
2022/07/28 14:24:46;;;;;;;5.23;1.27;;;;;;;;;;5042420;28;20287;-77
2022/07/28 14:27:11;;;;;;;5.73;1.20;;;;;;;;;;5042843;28;20667;-77
2022/07/28 14:29:37;;;;;;;6.13;1.37;;;;;;;;;;5042781;28;20029;-76
2022/07/28 14:32:03;;;;;;;2.53;1.30;;;;;;;;;;5042066;28;20263;-76
2022/07/28 14:34:28;;;;;;;2.90;1.35;;;;;;;;;;5042272;28;20029;-78
2022/07/28 14:36:55;;;;;;;4.73;1.40;;;;;;;;;;5042013;28;20107;-77
2022/07/28 14:39:20;;;;;;;3.67;1.75;;;;;;;;;;5042553;28;20259;-77
2022/07/28 14:41:46;;;;;;;17.50;2.10;;;;;;;;;;5042613;28;20060;-77
2022/07/28 14:44:11;;;;;;;7.00;2.40;;;;;;;;;;5042137;28;20029;-78
2022/07/28 14:46:36;;;;;;;7.97;2.50;;;;;;;;;;5042574;28;20255;-77
2022/07/28 14:49:01;;;;;;;5.50;2.00;;;;;;;;;;5040363;28;20264;-77
2022/07/28 14:51:26;;;;;;;5.43;2.30;;;;;;;;;;5040525;28;20297;-76
2022/07/28 14:53:54;;;;;;;4.13;2.00;;;;;;;;;;5039927;28;20475;-78
2022/07/28 14:56:19;;;;;;;3.30;1.88;;;;;;;;;;5040730;28;20611;-77
2022/07/28 14:58:44;;;;;;;4.83;1.70;;;;;;;;;;5039963;28;20022;-76
2022/07/28 15:01:09;;;;;;;5.43;1.80;;;;;;;;;;5040629;28;20336;-77
2022/07/28 15:03:34;;;;;;;4.20;1.53;;;;;;;;;;5040611;28;20336;-76
2022/07/28 15:06:03;;;;;;;6.07;1.97;;;;;;;;;;5025045;28;20278;-78
2022/07/28 15:08:28;;;;;;;4.72;2.20;;;;;;;;;;5041592;28;20616;-77
2022/07/28 15:10:53;;;;;;;8.50;1.90;;;;;;;;;;5042895;28;20021;-78
2022/07/28 15:13:19;;;;;;;2.97;1.67;;;;;;;;;;5041407;28;20060;-76
2022/07/28 15:15:44;;;;;;;3.83;1.65;;;;;;;;;;5041759;28;20017;-78
2022/07/28 15:18:10;;;;;;;9.32;1.88;;;;;;;;;;5023104;28;20021;-77
2022/07/28 15:20:38;;;;;;;8.68;2.10;;;;;;;;;;5041344;28;20025;-75
2022/07/28 15:23:04;;;;;;;3.17;1.65;;;;;;;;;;5039846;28;20143;-77
2022/07/28 15:25:29;;;;;;;2.55;1.30;;;;;;;;;;5039835;28;20033;-78
2022/07/28 15:27:55;;;;;;;3.65;1.40;;;;;;;;;;5040754;28;20048;-77
2022/07/28 15:30:20;;;;;;;4.70;1.10;;;;;;;;;;5040827;28;20091;-78
2022/07/28 15:32:45;;;;;;;2.57;1.10;;;;;;;;;;5040229;28;20049;-78